Time;durP1;ratioP1;P1;durP2;ratioP2;P2;SDS_P1;SDS_P2;PMS_P1;PMS_P2;Temp;Humidity;BMP_temperature;BMP_pressure;BME280_temperature;BME280_humidity;BME280_pressure;Samples;Min_cycle;Max_cycle;Signal;HPM_P1;HPM_P2
2022/01/01 00:00:05;;;;;;;41.37;23.50;;;;;;;12.55;82.25;100567.13;4973739;28;20097;-90
2022/01/01 00:02:30;;;;;;;52.08;26.42;;;;;;;12.53;82.40;100572.53;4988653;28;20054;-91
2022/01/01 00:04:59;;;;;;;35.60;19.52;;;;;;;12.53;82.27;100580.41;4974417;28;20046;-89
2022/01/01 00:07:27;;;;;;;30.93;18.50;;;;;;;12.53;82.27;100569.03;4992294;28;20395;-90
2022/01/01 00:09:55;;;;;;;33.75;15.88;;;;;;;12.51;82.45;100571.78;5013417;28;20144;-90
2022/01/01 00:12:20;;;;;;;28.93;14.80;;;;;;;12.51;82.49;100576.19;5012089;28;20082;-91
2022/01/01 00:17:34;;;;;;;18.50;10.30;;;;;;;12.52;82.13;100577.88;4933528;29;20050;-91
2022/01/01 00:19:59;;;;;;;22.15;10.00;;;;;;;12.51;82.44;100573.56;4934014;28;20043;-91
2022/01/01 00:22:25;;;;;;;21.38;11.15;;;;;;;12.48;82.41;100566.72;4926037;29;20119;-92
2022/01/01 00:24:55;;;;;;;16.73;9.10;;;;;;;12.48;82.47;100571.16;4933311;28;20024;-90
2022/01/01 00:27:23;;;;;;;18.83;10.20;;;;;;;12.46;82.59;100576.53;4934402;29;20103;-90
2022/01/01 00:29:52;;;;;;;20.05;8.88;;;;;;;12.48;82.20;100571.16;4935341;29;20502;-90
2022/01/01 00:32:17;;;;;;;19.63;9.18;;;;;;;12.49;82.19;100572.81;4934177;28;20480;-91
2022/01/01 00:34:42;;;;;;;16.90;8.20;;;;;;;12.49;82.46;100578.09;4934954;29;20090;-90
2022/01/01 00:37:11;;;;;;;14.70;7.57;;;;;;;12.52;81.84;100580.50;4935681;28;20051;-90
2022/01/01 00:39:37;;;;;;;14.93;7.18;;;;;;;12.53;82.08;100583.03;4935313;29;20097;-89
2022/01/01 00:42:02;;;;;;;16.45;7.13;;;;;;;12.54;81.95;100583.88;4937550;29;20060;-90
2022/01/01 00:44:35;;;;;;;12.15;6.28;;;;;;;12.53;81.95;100596.19;4934786;28;20046;-88
2022/01/01 00:47:04;;;;;;;12.68;6.20;;;;;;;12.52;82.00;100602.38;4934950;29;20048;-90
2022/01/01 00:49:29;;;;;;;13.38;7.05;;;;;;;12.51;82.18;100598.06;4933623;28;20043;-90
2022/01/01 00:52:05;;;;;;;12.98;6.13;;;;;;;12.50;82.17;100587.69;4918099;29;20040;-91
2022/01/01 00:54:31;;;;;;;11.30;6.10;;;;;;;12.49;82.01;100586.81;4971446;28;20041;-91
2022/01/01 00:56:56;;;;;;;15.63;6.47;;;;;;;12.48;82.09;100598.28;5011541;28;20223;-89
2022/01/01 00:59:22;;;;;;;11.65;5.43;;;;;;;12.48;82.11;100602.72;5002525;28;20061;-90
2022/01/01 01:01:48;;;;;;;13.15;6.82;;;;;;;12.50;82.08;100611.34;5028305;28;20030;-91
2022/01/01 01:04:13;;;;;;;11.77;6.53;;;;;;;12.47;82.11;100601.88;5002356;28;20034;-91
2022/01/01 01:06:39;;;;;;;12.55;6.63;;;;;;;12.48;82.06;100610.59;5012014;28;20088;-91
2022/01/01 01:09:05;;;;;;;13.20;6.40;;;;;;;12.49;81.90;100607.00;5029899;28;20030;-91
2022/01/01 01:11:31;;;;;;;12.13;6.55;;;;;;;12.51;81.89;100615.66;5013808;28;20026;-90
2022/01/01 01:14:00;;;;;;;11.07;5.88;;;;;;;12.50;81.79;100621.88;5028260;28;20193;-89
2022/01/01 01:16:29;;;;;;;12.93;6.43;;;;;;;12.51;81.88;100615.66;5012824;28;20034;-90
2022/01/01 01:18:57;;;;;;;13.27;6.57;;;;;;;12.52;81.88;100627.84;5027205;28;20084;-90
2022/01/01 01:21:28;;;;;;;12.10;6.35;;;;;;;12.52;81.66;100625.22;5011338;28;20022;-90
2022/01/01 01:23:56;;;;;;;14.50;6.57;;;;;;;12.52;81.75;100625.22;5020213;28;20038;-90
2022/01/01 01:26:23;;;;;;;10.55;6.25;;;;;;;12.56;81.58;100613.53;5015315;28;20045;-91
2022/01/01 01:28:50;;;;;;;12.70;6.20;;;;;;;12.57;81.45;100628.41;5031870;28;20121;-91
2022/01/01 01:31:17;;;;;;;15.02;6.05;;;;;;;12.57;81.48;100629.22;5024589;28;20041;-90
2022/01/01 01:33:44;;;;;;;12.43;6.45;;;;;;;12.56;81.47;100621.44;4991365;28;20082;-91
2022/01/01 01:36:12;;;;;;;11.60;6.30;;;;;;;12.58;81.43;100632.69;4978215;28;20023;-90
2022/01/01 01:38:41;;;;;;;;;;;;;;;12.57;81.29;100637.13;4993326;28;20476;-91
2022/01/01 01:41:09;;;;;;;11.95;5.93;;;;;;;12.58;81.26;100630.91;4975084;28;19917;-90
2022/01/01 01:43:37;;;;;;;12.05;6.18;;;;;;;12.57;81.49;100637.13;4992767;28;20038;-91
2022/01/01 01:46:05;;;;;;;13.75;6.45;;;;;;;12.56;81.42;100631.94;5014229;28;20327;-91
2022/01/01 01:48:34;;;;;;;13.68;5.78;;;;;;;12.54;81.56;100636.50;5004343;28;20110;-89
2022/01/01 01:51:03;;;;;;;13.43;6.40;;;;;;;12.56;81.57;100626.69;4982590;28;20038;-88
2022/01/01 01:53:29;;;;;;;12.43;6.80;;;;;;;12.55;81.38;100622.38;4997883;28;20030;-90
2022/01/01 01:55:55;;;;;;;15.02;5.47;;;;;;;12.56;81.37;100642.47;5001227;28;20034;-90
2022/01/01 01:58:22;;;;;;;15.75;6.53;;;;;;;12.58;81.20;100643.22;5000564;28;20022;-89
2022/01/01 02:01:12;;;;;;;13.85;6.38;;;;;;;12.55;81.37;100636.38;5006346;28;20189;-90
2022/01/01 02:03:39;;;;;;;17.92;6.13;;;;;;;12.54;81.34;100642.59;5015946;28;20109;-90
2022/01/01 02:06:32;;;;;;;14.15;7.55;;;;;;;12.56;81.17;100634.56;5000703;28;20026;-89
2022/01/01 02:08:58;;;;;;;17.25;6.18;;;;;;;12.53;81.28;100633.03;5014434;28;20038;-89
2022/01/01 02:11:36;;;;;;;12.77;6.22;;;;;;;12.53;81.29;100645.31;5018117;28;20037;-90
2022/01/01 02:14:09;;;;;;;14.48;6.25;;;;;;;12.52;81.32;100636.59;5030102;28;20048;-89
2022/01/01 02:16:53;;;;;;;13.13;5.82;;;;;;;12.50;81.53;100646.38;5015475;28;20041;-89
2022/01/01 02:19:26;;;;;;;13.95;6.15;;;;;;;12.52;81.43;100646.25;5029863;28;20431;-89
2022/01/01 02:21:54;;;;;;;13.20;6.20;;;;;;;12.52;81.24;100656.78;5013249;28;20033;-88
2022/01/01 02:24:20;;;;;;;13.77;6.18;;;;;;;12.51;81.17;100661.22;5013070;28;20025;-89
2022/01/01 02:26:45;;;;;;;12.30;6.15;;;;;;;12.51;81.21;100657.75;5014422;28;20124;-90
2022/01/01 02:29:11;;;;;;;11.73;5.65;;;;;;;12.49;81.41;100659.63;5013799;28;20113;-90
2022/01/01 02:31:37;;;;;;;19.17;6.43;;;;;;;12.47;81.45;100656.28;5014677;28;20034;-91
2022/01/01 02:34:04;;;;;;;14.85;5.95;;;;;;;12.46;81.83;100662.47;5012933;28;20515;-90
2022/01/01 02:36:39;;;;;;;15.00;6.00;;;;;;;12.45;81.58;100663.41;5030082;28;20033;-90
2022/01/01 02:39:19;;;;;;;13.07;5.45;;;;;;;12.43;81.97;100671.44;5014927;28;20044;-90
2022/01/01 02:44:54;;;;;;;9.25;5.15;;;;;;;12.39;82.04;100659.44;4992983;28;20061;-89
2022/01/01 02:47:20;;;;;;;10.70;6.03;;;;;;;12.39;82.16;100672.59;5013076;28;20499;-90
2022/01/01 02:49:45;;;;;;;10.30;5.32;;;;;;;12.37;82.45;100671.00;5004352;28;20094;-90
2022/01/01 02:52:11;;;;;;;17.48;6.15;;;;;;;12.37;82.47;100682.34;5022834;28;20048;-90
2022/01/01 02:54:37;;;;;;;11.05;6.15;;;;;;;12.36;82.52;100680.69;5005158;28;20018;-91
2022/01/01 02:57:03;;;;;;;10.80;5.97;;;;;;;12.35;82.67;100684.25;4995018;28;20032;-90
2022/01/01 02:59:31;;;;;;;9.45;5.30;;;;;;;12.35;82.46;100682.47;5001974;28;20034;-84
2022/01/01 03:01:56;;;;;;;10.07;5.68;;;;;;;12.34;82.71;100680.75;5012984;28;20050;-91
2022/01/01 03:04:21;;;;;;;14.13;6.05;;;;;;;12.34;82.59;100683.41;5008845;28;20061;-90
2022/01/01 03:06:53;;;;;;;12.27;5.53;;;;;;;12.35;82.67;100679.00;5003675;28;20038;-90
2022/01/01 03:09:22;;;;;;;13.30;5.80;;;;;;;12.35;82.75;100686.91;5015051;28;20055;-90
2022/01/01 03:11:49;;;;;;;14.02;6.55;;;;;;;12.32;83.04;100685.31;4983715;28;20035;-90
2022/01/01 03:14:17;;;;;;;9.90;5.00;;;;;;;12.30;83.19;100681.09;5005884;28;20030;-90
2022/01/01 03:16:46;;;;;;;11.60;5.30;;;;;;;12.29;83.25;100684.66;5000327;28;20035;-89
2022/01/01 03:19:14;;;;;;;17.55;5.85;;;;;;;12.27;83.27;100692.69;5002898;28;20037;-89
2022/01/01 03:21:40;;;;;;;10.70;5.20;;;;;;;12.26;83.56;100688.34;4994136;28;20026;-90
2022/01/01 03:24:06;;;;;;;10.75;5.45;;;;;;;12.25;83.62;100691.09;5013637;28;20026;-89
2022/01/01 03:26:32;;;;;;;12.88;5.63;;;;;;;12.27;83.25;100689.19;5014712;28;20046;-88
2022/01/01 03:28:57;;;;;;;12.00;5.50;;;;;;;12.21;83.47;100687.81;4981937;28;20042;-88
2022/01/01 03:31:24;;;;;;;10.88;5.55;;;;;;;12.21;83.57;100690.44;5006615;28;20033;-90
2022/01/01 03:33:50;;;;;;;13.40;5.88;;;;;;;12.23;83.40;100701.69;4983190;28;20132;-89
2022/01/01 03:36:16;;;;;;;15.48;5.40;;;;;;;12.23;83.49;100701.69;4993880;28;20427;-89
2022/01/01 03:38:41;;;;;;;12.90;4.85;;;;;;;12.25;83.50;100705.06;5004802;28;20046;-89
2022/01/01 03:41:07;;;;;;;12.77;5.45;;;;;;;12.24;83.46;100700.75;4990727;28;20471;-89
2022/01/01 03:43:33;;;;;;;12.55;5.93;;;;;;;12.26;83.51;100700.66;4985729;28;20121;-89
2022/01/01 03:45:58;;;;;;;10.05;5.57;;;;;;;12.25;83.43;100705.06;4987603;28;20661;-90
2022/01/01 03:48:35;;;;;;;13.88;5.57;;;;;;;12.26;83.31;100703.28;4992279;28;20031;-91
2022/01/01 03:51:00;;;;;;;10.32;5.15;;;;;;;12.25;83.28;100694.56;4978392;28;20084;-90
2022/01/01 03:53:32;;;;;;;11.20;5.40;;;;;;;12.25;83.27;100691.09;5004686;28;20026;-89
2022/01/01 03:55:59;;;;;;;11.90;5.78;;;;;;;12.26;83.38;100704.13;5003476;28;20110;-89
2022/01/01 03:58:25;;;;;;;15.95;6.25;;;;;;;12.25;83.17;100707.69;4998335;28;20030;-89
2022/01/01 04:01:00;;;;;;;;;;;;;;;;;;;;;
2022/01/01 04:03:26;;;;;;;12.23;6.03;;;;;;;12.24;83.54;100713.91;4994935;28;20027;-89
2022/01/01 04:05:54;;;;;;;13.82;6.22;;;;;;;12.22;83.36;100709.69;5027343;28;20060;-89
2022/01/01 04:08:22;;;;;;;10.45;6.10;;;;;;;12.22;83.56;100721.03;5025630;28;20040;-90
2022/01/01 04:10:48;;;;;;;16.65;6.95;;;;;;;12.20;83.40;100711.56;5007767;28;20120;-89
2022/01/01 04:13:14;;;;;;;13.45;6.05;;;;;;;12.18;83.52;100716.94;5021530;28;20030;-90
2022/01/01 04:15:42;;;;;;;9.82;5.53;;;;;;;12.19;83.40;100721.25;4999063;28;20030;-90
2022/01/01 04:18:12;;;;;;;15.82;5.65;;;;;;;12.19;83.67;100723.03;5000504;28;20014;-90
2022/01/01 04:20:44;;;;;;;9.48;5.25;;;;;;;12.17;83.60;100725.78;5007186;28;20110;-91
2022/01/01 04:23:12;;;;;;;13.38;6.03;;;;;;;12.18;83.75;100716.09;4991907;28;20034;-90
2022/01/01 04:25:38;;;;;;;17.13;6.67;;;;;;;12.16;83.68;100716.19;4982063;28;20042;-90
2022/01/01 04:28:04;;;;;;;11.82;5.65;;;;;;;12.15;83.84;100719.75;4983172;28;20289;-89
2022/01/01 04:30:30;;;;;;;17.15;5.57;;;;;;;12.16;83.51;100721.44;5009858;28;20029;-89
2022/01/01 04:32:57;;;;;;;11.18;4.90;;;;;;;12.18;83.72;100724.81;5012538;28;20073;-90
2022/01/01 04:35:23;;;;;;;13.95;5.40;;;;;;;12.18;83.77;100730.09;5006617;28;20081;-90
2022/01/01 04:37:49;;;;;;;12.43;5.13;;;;;;;12.17;83.69;100723.16;5008389;28;20089;-89
2022/01/01 04:40:14;;;;;;;10.98;5.13;;;;;;;12.15;83.58;100727.66;4993609;28;20118;-89
2022/01/01 04:42:42;;;;;;;9.35;4.63;;;;;;;12.14;83.52;100720.72;4995445;28;20026;-89
2022/01/01 04:45:10;;;;;;;10.00;4.70;;;;;;;12.15;83.72;100732.91;5013472;28;20458;-89
2022/01/01 04:47:38;;;;;;;12.68;4.90;;;;;;;12.14;83.76;100723.34;4986511;28;20101;-89
2022/01/01 04:50:05;;;;;;;10.48;4.53;;;;;;;12.15;83.63;100738.16;5011264;28;20037;-89
2022/01/01 04:52:31;;;;;;;9.65;4.95;;;;;;;12.17;83.54;100741.56;4996955;28;20086;-90
2022/01/01 04:54:57;;;;;;;9.25;4.60;;;;;;;12.14;83.73;100733.88;4988425;28;20103;-89
2022/01/01 04:57:28;;;;;;;8.38;4.60;;;;;;;12.14;83.76;100735.66;4993781;28;20065;-90
2022/01/01 04:59:56;;;;;;;14.32;4.90;;;;;;;12.13;83.56;100740.06;4994411;28;20037;-90
2022/01/01 05:02:24;;;;;;;10.48;4.57;;;;;;;12.11;83.76;100732.28;4983969;28;20030;-90
2022/01/01 05:04:50;;;;;;;10.48;4.38;;;;;;;12.11;83.77;100740.16;4989884;28;20077;-90
2022/01/01 05:07:18;;;;;;;8.30;4.38;;;;;;;12.11;83.54;100736.69;4980623;28;20118;-90
2022/01/01 05:09:44;;;;;;;11.13;4.70;;;;;;;12.16;83.49;100739.00;4976748;28;20054;-90
2022/01/01 05:12:10;;;;;;;8.85;4.45;;;;;;;12.16;83.38;100736.38;4975509;28;20109;-90
2022/01/01 05:14:36;;;;;;;9.57;3.63;;;;;;;12.15;83.33;100738.16;4973044;28;20133;-90
2022/01/01 05:17:01;;;;;;;11.90;3.92;;;;;;;12.17;83.20;100732.81;4973140;28;20042;-90
2022/01/01 05:19:27;;;;;;;8.32;3.83;;;;;;;12.16;83.00;100737.22;4972060;28;20035;-90
2022/01/01 05:21:55;;;;;;;8.10;4.22;;;;;;;12.15;83.23;100732.91;4981782;28;20061;-90
2022/01/01 05:24:22;;;;;;;7.45;4.18;;;;;;;12.15;83.31;100725.03;4991756;28;20034;-90
2022/01/01 05:26:48;;;;;;;6.97;3.67;;;;;;;12.13;83.42;100737.44;4974000;28;20047;-90
2022/01/01 05:29:13;;;;;;;9.98;3.95;;;;;;;12.15;83.30;100746.06;4975665;28;20087;-90
2022/01/01 05:31:39;;;;;;;6.32;3.42;;;;;;;12.13;83.43;100737.44;4987854;28;20120;-90
2022/01/01 05:34:05;;;;;;;11.98;4.00;;;;;;;12.14;83.22;100747.00;4978114;28;20090;-89
2022/01/01 05:36:31;;;;;;;9.13;4.22;;;;;;;12.13;83.43;100742.72;4975162;28;20391;-89
2022/01/01 05:38:56;;;;;;;9.32;4.28;;;;;;;12.13;83.48;100747.13;5002435;28;20074;-89
2022/01/01 05:41:26;;;;;;;8.25;3.78;;;;;;;12.11;83.65;100747.22;4983663;28;20122;-89
2022/01/01 05:43:51;;;;;;;10.27;3.60;;;;;;;12.09;83.26;100747.31;4995310;28;20058;-89
2022/01/01 05:46:17;;;;;;;9.73;4.60;;;;;;;12.07;83.71;100754.44;4993304;28;20514;-89
2022/01/01 05:48:42;;;;;;;12.95;5.50;;;;;;;12.06;83.67;100751.94;4994372;28;20446;-88
2022/01/01 05:51:08;;;;;;;9.23;4.20;;;;;;;12.04;83.71;100759.91;4989950;28;20136;-89
2022/01/01 05:53:34;;;;;;;7.75;3.97;;;;;;;12.04;83.69;100754.66;4978078;28;20043;-89
2022/01/01 05:56:00;;;;;;;7.97;3.72;;;;;;;12.03;83.80;100749.50;4996452;28;20371;-89
2022/01/01 05:58:29;;;;;;;8.10;4.05;;;;;;;12.02;83.80;100753.09;5011178;28;20033;-89
2022/01/01 06:00:56;;;;;;;9.68;4.03;;;;;;;11.99;83.80;100754.13;4987846;28;20062;-89
2022/01/01 06:03:31;;;;;;;9.75;4.47;;;;;;;12.01;83.74;100764.53;4979611;28;20027;-89
2022/01/01 06:05:57;;;;;;;9.13;4.22;;;;;;;12.02;83.93;100768.84;4972484;28;20110;-89
2022/01/01 06:08:24;;;;;;;11.45;5.43;;;;;;;12.01;83.75;100768.00;5015492;28;20053;-88
2022/01/01 06:10:49;;;;;;;9.20;4.20;;;;;;;12.02;83.88;100767.06;5013784;28;20192;-88
2022/01/01 06:13:15;;;;;;;5.70;3.40;;;;;;;12.01;83.73;100775.88;5016740;28;20038;-89
2022/01/01 06:15:42;;;;;;;9.50;4.22;;;;;;;12.00;83.72;100774.19;5011413;28;20022;-88
2022/01/01 06:18:08;;;;;;;9.80;4.50;;;;;;;12.00;83.88;100786.50;5000122;28;20038;-89
2022/01/01 06:20:33;;;;;;;10.10;4.15;;;;;;;12.01;83.83;100791.66;4996906;28;20054;-88
2022/01/01 06:23:01;;;;;;;10.05;3.97;;;;;;;12.04;83.82;100798.50;4996696;28;20108;-89
2022/01/01 06:25:27;;;;;;;8.43;3.55;;;;;;;12.02;83.92;100795.13;4996043;28;20054;-89
2022/01/01 06:27:52;;;;;;;6.72;3.85;;;;;;;12.02;83.67;100803.88;5014118;28;20049;-89
2022/01/01 06:30:18;;;;;;;8.25;3.70;;;;;;;12.03;83.35;100802.06;5035047;28;20081;-89
2022/01/01 06:32:43;;;;;;;11.90;3.97;;;;;;;12.04;83.57;100817.72;5023815;28;20044;-89
2022/01/01 06:35:08;;;;;;;9.05;4.10;;;;;;;12.03;83.29;100815.22;5034394;28;20153;-90
2022/01/01 06:37:37;;;;;;;12.45;4.82;;;;;;;12.05;83.27;100808.06;5008122;28;20046;-89
2022/01/01 06:40:03;;;;;;;11.77;3.72;;;;;;;12.05;83.22;100808.06;5011598;28;20030;-90
2022/01/01 06:42:28;;;;;;;9.02;4.53;;;;;;;12.07;83.08;100824.59;5025247;28;20038;-89
2022/01/01 06:44:54;;;;;;;8.38;3.78;;;;;;;12.06;82.99;100826.38;5006500;28;20061;-89
2022/01/01 06:47:19;;;;;;;11.95;4.72;;;;;;;12.06;83.16;100826.38;5006851;28;20092;-90
2022/01/01 06:49:48;;;;;;;9.45;4.53;;;;;;;12.08;82.92;100823.63;5000106;28;20038;-90
2022/01/01 06:52:13;;;;;;;9.65;4.18;;;;;;;12.05;82.96;100815.94;5010397;28;20092;-90
2022/01/01 06:54:39;;;;;;;10.23;4.05;;;;;;;12.07;82.79;100824.59;5017227;28;20018;-89
2022/01/01 06:57:07;;;;;;;11.77;5.03;;;;;;;12.08;82.52;100827.09;5018038;28;20313;-88
2022/01/01 06:59:33;;;;;;;13.80;4.60;;;;;;;12.09;82.52;100826.19;5015771;28;20038;-91
2022/01/01 07:01:58;;;;;;;10.65;5.10;;;;;;;12.08;82.46;100828.91;5017244;28;20071;-90
2022/01/01 07:04:24;;;;;;;14.85;4.65;;;;;;;12.10;82.23;100833.13;5016727;28;20034;-90
2022/01/01 07:06:49;;;;;;;13.10;4.53;;;;;;;12.10;82.16;100834.91;5015635;28;20446;-90
2022/01/01 07:09:15;;;;;;;11.27;4.93;;;;;;;12.08;82.06;100828.91;4997645;28;20034;-90
2022/01/01 07:11:42;;;;;;;12.60;4.60;;;;;;;12.10;81.92;100841.00;4997174;28;20045;-90
2022/01/01 07:14:11;;;;;;;10.15;4.32;;;;;;;12.13;81.73;100844.41;4985910;28;20085;-88
2022/01/01 07:16:36;;;;;;;11.07;4.47;;;;;;;12.13;81.35;100842.59;4975012;28;20041;-89
2022/01/01 07:19:04;;;;;;;10.25;4.25;;;;;;;12.15;81.57;100853.00;4986821;28;20034;-91
2022/01/01 07:21:30;;;;;;;12.95;5.00;;;;;;;12.14;81.37;100849.53;4995339;28;20105;-90
2022/01/01 07:23:56;;;;;;;11.68;4.85;;;;;;;12.14;81.28;100846.91;4986187;28;20438;-91
2022/01/01 07:26:22;;;;;;;17.25;4.43;;;;;;;12.14;81.11;100844.28;4977196;28;20467;-90
2022/01/01 07:28:48;;;;;;;13.48;4.55;;;;;;;12.15;81.07;100847.75;4974823;28;20053;-91
2022/01/01 07:31:13;;;;;;;9.45;4.05;;;;;;;12.13;81.10;100850.50;4993706;28;20042;-90
2022/01/01 07:33:39;;;;;;;14.52;4.95;;;;;;;12.13;80.94;100850.50;5001393;28;20463;-90
2022/01/01 07:36:04;;;;;;;9.48;4.30;;;;;;;12.13;81.00;100853.13;4975857;28;20046;-91
2022/01/01 07:38:33;;;;;;;12.23;4.72;;;;;;;12.13;81.06;100862.81;4975849;28;20054;-91
2022/01/01 07:41:06;;;;;;;15.75;4.45;;;;;;;12.13;80.81;100865.44;4971824;28;20050;-90
2022/01/01 07:43:34;;;;;;;17.30;5.50;;;;;;;12.11;80.84;100863.72;4991296;28;20475;-91
2022/01/01 07:46:01;;;;;;;13.27;5.95;;;;;;;12.13;80.68;100873.31;4998071;28;20053;-90
2022/01/01 07:48:26;;;;;;;11.10;4.47;;;;;;;12.13;80.41;100887.31;5001714;28;20050;-87
2022/01/01 07:50:53;;;;;;;11.52;4.18;;;;;;;12.12;80.45;100885.59;5012985;28;20046;-90
2022/01/01 07:53:19;;;;;;;11.93;4.75;;;;;;;12.14;80.49;100888.97;5015778;28;20038;-88
2022/01/01 07:55:44;;;;;;;12.00;4.20;;;;;;;12.15;80.31;100889.81;4999088;28;20041;-88
2022/01/01 07:58:10;;;;;;;11.73;3.95;;;;;;;12.14;80.04;100888.97;5016239;28;20027;-87
2022/01/01 08:00:35;;;;;;;13.10;4.32;;;;;;;12.16;80.00;100891.50;5004456;28;20109;-88
2022/01/01 08:03:01;;;;;;;11.32;4.40;;;;;;;12.17;80.07;100896.69;5015097;28;20022;-88
2022/01/01 08:05:29;;;;;;;8.90;3.88;;;;;;;12.19;79.67;100892.16;5004464;28;20504;-89
2022/01/01 08:07:57;;;;;;;15.30;4.28;;;;;;;12.20;79.68;100893.00;4991055;28;20526;-88
2022/01/01 08:10:25;;;;;;;13.75;3.95;;;;;;;12.21;79.45;100897.34;4998895;28;20038;-87
2022/01/01 08:12:53;;;;;;;11.23;4.43;;;;;;;12.21;79.26;100903.44;5006628;28;20120;-86
2022/01/01 08:15:19;;;;;;;17.20;4.65;;;;;;;12.22;79.42;100910.38;5031291;28;20034;-89
2022/01/01 08:17:44;;;;;;;10.15;4.20;;;;;;;12.22;79.41;100910.38;5031079;28;20080;-87
2022/01/01 08:20:10;;;;;;;10.00;4.32;;;;;;;12.24;79.44;100931.31;5018506;28;20056;-87
2022/01/01 08:22:37;;;;;;;9.60;3.92;;;;;;;12.24;79.51;100916.38;5017416;28;20022;-89
2022/01/01 08:25:06;;;;;;;11.32;4.32;;;;;;;12.23;79.36;100919.09;5019639;28;20090;-88
2022/01/01 08:27:31;;;;;;;14.25;3.85;;;;;;;12.26;79.27;100914.47;5020076;28;20035;-88
2022/01/01 08:29:57;;;;;;;12.45;3.97;;;;;;;12.26;79.08;100924.16;5014814;28;20042;-88
2022/01/01 08:32:22;;;;;;;9.27;4.18;;;;;;;12.29;79.18;100926.59;5023050;28;20042;-87
2022/01/01 08:34:48;;;;;;;12.52;4.25;;;;;;;12.29;79.05;100916.91;4980745;28;20030;-88
2022/01/01 08:37:13;;;;;;;13.00;4.47;;;;;;;12.31;79.21;100919.44;4998092;28;20037;-87
2022/01/01 08:39:39;;;;;;;11.65;4.20;;;;;;;12.33;78.90;100923.66;4999332;28;20033;-88
2022/01/01 08:42:05;;;;;;;12.85;4.15;;;;;;;12.35;78.74;100928.84;5004337;28;20033;-89
2022/01/01 08:44:32;;;;;;;13.40;4.35;;;;;;;12.36;78.77;100930.53;4986906;28;20039;-88
2022/01/01 08:46:58;;;;;;;16.95;4.63;;;;;;;12.38;78.98;100935.69;4981368;28;20035;-88
2022/01/01 08:49:23;;;;;;;16.65;4.85;;;;;;;12.37;78.63;100934.84;4996325;28;20041;-88
2022/01/01 08:51:49;;;;;;;34.47;7.63;;;;;;;12.38;78.77;100935.69;5001174;28;20022;-89
2022/01/01 08:54:14;;;;;;;13.93;4.43;;;;;;;12.37;78.79;100932.22;5010605;28;20023;-88
2022/01/01 08:56:41;;;;;;;14.07;4.43;;;;;;;12.38;78.49;100933.88;4980588;28;20030;-88
2022/01/01 08:59:11;;;;;;;20.92;4.78;;;;;;;12.40;78.54;100939.91;4988730;28;20027;-88
2022/01/01 09:01:47;;;;;;;13.40;4.55;;;;;;;12.42;78.58;100939.78;5000520;28;20518;-88
2022/01/01 09:04:12;;;;;;;12.93;5.28;;;;;;;12.42;78.56;100947.69;4964406;28;20542;-88
2022/01/01 09:06:38;;;;;;;16.80;5.00;;;;;;;12.41;78.58;100938.13;4998335;28;20185;-87
2022/01/01 09:09:10;;;;;;;16.02;5.22;;;;;;;12.46;78.38;100954.44;4986168;28;20072;-88
2022/01/01 09:11:38;;;;;;;11.73;4.63;;;;;;;12.46;78.32;100957.06;4984479;28;20422;-88
2022/01/01 09:14:18;;;;;;;13.80;4.43;;;;;;;12.47;78.25;100962.25;4985324;28;20145;-88
2022/01/01 09:17:01;;;;;;;14.20;4.25;;;;;;;12.51;78.25;100960.28;4983443;28;20118;-90
2022/01/01 09:19:27;;;;;;;14.55;4.10;;;;;;;12.51;77.82;100965.53;4977378;28;20031;-88
2022/01/01 09:21:55;;;;;;;14.02;4.38;;;;;;;12.53;77.73;100974.16;5002210;28;20050;-88
2022/01/01 09:24:33;;;;;;;;;;;;;;;;;;;;;
2022/01/01 09:26:59;;;;;;;;;;;;;;;12.57;77.80;100973.03;4988353;28;20033;-88
2022/01/01 09:29:25;;;;;;;16.00;4.78;;;;;;;12.54;77.54;100976.69;5003022;28;19972;-88
2022/01/01 09:31:50;;;;;;;12.45;5.43;;;;;;;12.55;77.80;100988.91;4987265;28;20465;-88
2022/01/01 09:34:16;;;;;;;12.57;4.55;;;;;;;12.54;77.63;100974.06;4978292;28;20113;-88
2022/01/01 09:36:42;;;;;;;13.57;4.63;;;;;;;12.57;77.29;100976.50;4996399;28;20137;-88
2022/01/01 09:39:08;;;;;;;15.50;4.18;;;;;;;12.59;77.31;100971.13;5026695;28;20389;-88
2022/01/01 09:41:34;;;;;;;16.45;4.70;;;;;;;12.60;76.97;100968.41;5001955;28;20348;-87
2022/01/01 09:44:00;;;;;;;17.02;4.55;;;;;;;12.62;76.83;100980.63;4990027;28;20398;-88
2022/01/01 09:46:46;;;;;;;20.42;5.72;;;;;;;12.63;77.17;100983.16;5008391;28;20057;-90
2022/01/01 09:49:17;;;;;;;16.15;4.10;;;;;;;12.63;76.83;100982.31;4976862;28;20051;-88
2022/01/01 09:51:44;;;;;;;15.43;4.55;;;;;;;12.64;76.67;100991.88;4994114;28;20156;-87
2022/01/01 09:54:10;;;;;;;16.10;4.80;;;;;;;12.65;76.88;100988.34;5002507;28;20141;-88
2022/01/01 09:56:36;;;;;;;13.75;4.85;;;;;;;12.66;76.83;100977.69;4989856;28;20098;-88
2022/01/01 09:59:04;;;;;;;17.90;5.05;;;;;;;12.65;77.04;100981.28;5002166;28;20113;-88
2022/01/01 10:01:29;;;;;;;18.38;5.10;;;;;;;12.64;77.13;100979.56;5016064;28;20038;-88
2022/01/01 10:03:58;;;;;;;15.63;4.63;;;;;;;12.64;77.05;100986.63;4978058;28;20473;-87
2022/01/01 10:06:26;;;;;;;;;;;;;;;12.65;76.84;100986.53;4998875;28;20066;-89
2022/01/01 10:09:04;;;;;;;15.35;5.55;;;;;;;12.68;76.63;100985.47;5009204;28;19918;-89
2022/01/01 10:11:33;;;;;;;15.73;5.43;;;;;;;12.69;76.85;100988.03;4977330;28;20031;-88
2022/01/01 10:14:05;;;;;;;18.33;4.30;;;;;;;12.72;76.62;100993.09;4983808;28;20056;-88
2022/01/01 10:16:30;;;;;;;18.27;5.10;;;;;;;12.74;76.31;100993.81;5008931;28;20056;-89
2022/01/01 10:18:57;;;;;;;16.15;4.80;;;;;;;12.75;76.27;101008.66;4998893;28;20486;-90
2022/01/01 10:21:51;;;;;;;14.63;4.13;;;;;;;12.78;76.42;101013.75;4995034;28;20037;-89
2022/01/01 10:24:40;;;;;;;16.02;4.55;;;;;;;12.79;76.04;101012.81;4997617;28;20149;-91
2022/01/01 10:28:10;;;;;;;12.38;4.43;;;;;;;12.76;76.15;101010.38;4996817;28;20112;-90
2022/01/01 10:31:08;;;;;;;18.05;4.95;;;;;;;12.81;76.41;101000.38;4919832;29;20040;-91
2022/01/01 10:36:55;;;;;;;18.02;4.85;;;;;;;12.83;76.20;101001.16;4900085;29;20051;-90
2022/01/01 10:39:28;;;;;;;17.00;5.18;;;;;;;12.82;76.38;101002.06;4903328;29;20029;-92
2022/01/01 10:41:59;;;;;;;14.63;5.65;;;;;;;12.86;76.51;100999.25;5027317;22;20601;-67
2022/01/01 10:44:34;;;;;;;16.23;5.95;;;;;;;12.84;76.41;100992.28;5064392;28;20056;-67
2022/01/01 10:47:04;;;;;;;21.63;6.78;;;;;;;12.88;76.44;100994.72;5065804;28;20586;-68
2022/01/01 10:49:49;;;;;;;13.73;5.25;;;;;;;12.90;76.19;100990.19;5070561;28;20082;-68
2022/01/01 10:52:20;;;;;;;19.80;5.82;;;;;;;12.91;76.11;100987.47;5067394;28;20041;-70
2022/01/01 10:54:57;;;;;;;13.27;4.93;;;;;;;12.92;76.01;100993.59;5070748;28;20032;-70
2022/01/01 10:57:24;;;;;;;31.98;6.78;;;;;;;12.92;76.10;100990.94;5055541;28;20029;-68
2022/01/01 10:59:50;;;;;;;18.45;5.30;;;;;;;12.93;76.13;100990.00;5068506;28;20043;-70
2022/01/01 11:02:15;;;;;;;16.92;5.70;;;;;;;12.91;76.08;100997.16;5062770;28;20119;-67
2022/01/01 11:04:41;;;;;;;17.58;5.20;;;;;;;12.93;75.96;100990.00;5062506;28;20530;-66
2022/01/01 11:07:08;;;;;;;16.52;5.13;;;;;;;12.94;75.88;100991.69;5067820;28;20048;-68
2022/01/01 11:09:33;;;;;;;21.75;5.13;;;;;;;12.98;75.61;100990.56;5067944;28;20573;-67
2022/01/01 11:12:03;;;;;;;19.05;5.68;;;;;;;12.99;75.70;100998.34;5065510;28;20195;-69
2022/01/01 11:14:31;;;;;;;14.38;5.05;;;;;;;12.99;75.60;101000.97;5062293;28;20044;-68
2022/01/01 11:16:58;;;;;;;18.17;5.15;;;;;;;12.98;75.78;101001.94;5062047;28;20492;-68
2022/01/01 11:19:24;;;;;;;16.25;5.38;;;;;;;13.02;75.27;101007.84;5059950;28;20087;-69
2022/01/01 11:21:51;;;;;;;18.25;5.55;;;;;;;13.05;75.13;101004.97;5065244;28;20413;-68
2022/01/01 11:24:18;;;;;;;20.80;5.50;;;;;;;13.06;75.15;101004.06;5067083;28;21037;-70
2022/01/01 11:26:44;;;;;;;20.60;5.07;;;;;;;13.07;74.91;101003.94;5063066;28;20028;-68
2022/01/01 11:29:13;;;;;;;19.20;5.10;;;;;;;13.08;74.73;101005.63;5068364;28;20059;-66
2022/01/01 11:31:41;;;;;;;17.77;5.10;;;;;;;13.13;74.80;101001.88;5058397;28;20060;-66
2022/01/01 11:34:07;;;;;;;19.02;5.72;;;;;;;13.12;74.90;101015.97;5068314;28;20115;-66